Terminal Aerodrome Forecast
Issued by NWS

Home | Current Version | Previous Version | Text Only | Print | Product List | Glossary Off
Versions: 1 2 3 4 5 6 7 8 9 10 11 12 13 14 15 16 17

767
FTUS43 KBIS 202330
TAFMOT
TAF
KMOT 202330Z 2100/2124 14007KT P6SM SCT250 WS020/18030KT
     FM210400 20009KT P6SM FEW250 WS020/20045KT
     FM210700 26016G24KT P6SM FEW250 WS020/28040KT
     FM211600 25018G28KT P6SM BKN200=

USA.gov is the U.S. government's official web portal to all federal, state and local government web resources and services.